sensor_id;sensor_type;location;lat;lon;timestamp;temperature;humidity
74101;DHT22;62462;52.530;21.682;2022-10-04T00:01:28;12.20;74.90
74101;DHT22;62462;52.530;21.682;2022-10-04T00:04:16;12.10;75.40
74101;DHT22;62462;52.530;21.682;2022-10-04T00:09:23;12.10;75.80
74101;DHT22;62462;52.530;21.682;2022-10-04T00:11:52;12.00;75.80
74101;DHT22;62462;52.530;21.682;2022-10-04T00:14:21;12.00;75.60
74101;DHT22;62462;52.530;21.682;2022-10-04T00:16:48;12.00;75.90
74101;DHT22;62462;52.530;21.682;2022-10-04T00:24:22;11.90;76.50
74101;DHT22;62462;52.530;21.682;2022-10-04T00:29:30;11.90;76.40
74101;DHT22;62462;52.530;21.682;2022-10-04T00:34:48;12.00;76.90
74101;DHT22;62462;52.530;21.682;2022-10-04T00:37:16;12.00;77.20
74101;DHT22;62462;52.530;21.682;2022-10-04T00:39:45;11.90;77.70
74101;DHT22;62462;52.530;21.682;2022-10-04T00:45:35;11.90;77.90
74101;DHT22;62462;52.530;21.682;2022-10-04T00:47:59;12.00;78.00
74101;DHT22;62462;52.530;21.682;2022-10-04T00:50:39;12.00;78.20
74101;DHT22;62462;52.530;21.682;2022-10-04T00:53:44;12.00;78.30
74101;DHT22;62462;52.530;21.682;2022-10-04T00:56:23;12.00;78.70
74101;DHT22;62462;52.530;21.682;2022-10-04T01:01:24;12.00;78.90
74101;DHT22;62462;52.530;21.682;2022-10-04T01:03:53;12.00;78.90
74101;DHT22;62462;52.530;21.682;2022-10-04T01:06:21;12.00;78.80
74101;DHT22;62462;52.530;21.682;2022-10-04T01:08:53;12.10;78.90
74101;DHT22;62462;52.530;21.682;2022-10-04T01:11:25;12.00;79.00
74101;DHT22;62462;52.530;21.682;2022-10-04T01:16:33;12.00;78.60
74101;DHT22;62462;52.530;21.682;2022-10-04T01:21:55;12.10;78.00
74101;DHT22;62462;52.530;21.682;2022-10-04T01:24:22;12.10;78.00
74101;DHT22;62462;52.530;21.682;2022-10-04T01:26:48;12.00;78.00
74101;DHT22;62462;52.530;21.682;2022-10-04T01:29:24;12.00;78.20
74101;DHT22;62462;52.530;21.682;2022-10-04T01:31:52;12.00;78.50
74101;DHT22;62462;52.530;21.682;2022-10-04T01:34:21;12.00;78.80
74101;DHT22;62462;52.530;21.682;2022-10-04T01:36:48;11.90;79.00
74101;DHT22;62462;52.530;21.682;2022-10-04T01:39:15;11.90;79.40
74101;DHT22;62462;52.530;21.682;2022-10-04T01:47:22;11.90;80.00
74101;DHT22;62462;52.530;21.682;2022-10-04T01:49:51;11.90;79.80
74101;DHT22;62462;52.530;21.682;2022-10-04T01:52:31;12.00;80.00
74101;DHT22;62462;52.530;21.682;2022-10-04T01:55:17;12.00;80.00
74101;DHT22;62462;52.530;21.682;2022-10-04T01:57:48;12.00;80.10
74101;DHT22;62462;52.530;21.682;2022-10-04T02:00:19;12.00;79.90
74101;DHT22;62462;52.530;21.682;2022-10-04T02:05:32;12.00;79.50
74101;DHT22;62462;52.530;21.682;2022-10-04T02:08:09;12.10;79.50
74101;DHT22;62462;52.530;21.682;2022-10-04T02:10:36;12.10;79.30
74101;DHT22;62462;52.530;21.682;2022-10-04T02:13:07;12.10;79.30
74101;DHT22;62462;52.530;21.682;2022-10-04T02:15:34;12.00;79.50
74101;DHT22;62462;52.530;21.682;2022-10-04T02:18:14;12.00;79.70
74101;DHT22;62462;52.530;21.682;2022-10-04T02:20:42;12.00;79.70
74101;DHT22;62462;52.530;21.682;2022-10-04T02:23:10;12.00;79.70
74101;DHT22;62462;52.530;21.682;2022-10-04T02:25:37;12.00;79.70
74101;DHT22;62462;52.530;21.682;2022-10-04T02:28:04;12.00;79.80
74101;DHT22;62462;52.530;21.682;2022-10-04T02:30:40;12.00;79.80
74101;DHT22;62462;52.530;21.682;2022-10-04T02:33:07;11.90;79.60
74101;DHT22;62462;52.530;21.682;2022-10-04T02:35:46;12.00;79.80
74101;DHT22;62462;52.530;21.682;2022-10-04T02:38:18;12.00;79.70
74101;DHT22;62462;52.530;21.682;2022-10-04T02:40:55;12.00;79.60
74101;DHT22;62462;52.530;21.682;2022-10-04T02:43:37;12.00;79.50
74101;DHT22;62462;52.530;21.682;2022-10-04T02:46:20;12.00;79.70
74101;DHT22;62462;52.530;21.682;2022-10-04T02:49:01;12.00;79.90
74101;DHT22;62462;52.530;21.682;2022-10-04T02:56:35;12.00;79.50
74101;DHT22;62462;52.530;21.682;2022-10-04T02:59:03;12.10;79.40
74101;DHT22;62462;52.530;21.682;2022-10-04T03:01:49;12.10;79.20
74101;DHT22;62462;52.530;21.682;2022-10-04T03:04:17;12.10;79.10
74101;DHT22;62462;52.530;21.682;2022-10-04T03:06:46;12.10;78.80
74101;DHT22;62462;52.530;21.682;2022-10-04T03:09:13;12.10;78.70
74101;DHT22;62462;52.530;21.682;2022-10-04T03:11:40;12.10;78.70
74101;DHT22;62462;52.530;21.682;2022-10-04T03:14:15;12.10;78.70
74101;DHT22;62462;52.530;21.682;2022-10-04T03:16:44;12.00;78.60
74101;DHT22;62462;52.530;21.682;2022-10-04T03:19:12;12.00;78.60
74101;DHT22;62462;52.530;21.682;2022-10-04T03:21:42;12.00;78.90
74101;DHT22;62462;52.530;21.682;2022-10-04T03:24:18;12.00;78.80
74101;DHT22;62462;52.530;21.682;2022-10-04T03:27:06;12.00;78.70
74101;DHT22;62462;52.530;21.682;2022-10-04T03:29:33;12.00;78.70
74101;DHT22;62462;52.530;21.682;2022-10-04T03:32:02;11.90;78.50
74101;DHT22;62462;52.530;21.682;2022-10-04T03:34:33;11.90;78.50
74101;DHT22;62462;52.530;21.682;2022-10-04T03:37:01;11.90;78.50
74101;DHT22;62462;52.530;21.682;2022-10-04T03:39:39;11.90;78.30
74101;DHT22;62462;52.530;21.682;2022-10-04T03:42:18;11.90;78.50
74101;DHT22;62462;52.530;21.682;2022-10-04T03:44:46;11.90;78.50
74101;DHT22;62462;52.530;21.682;2022-10-04T03:47:15;11.90;78.60
74101;DHT22;62462;52.530;21.682;2022-10-04T03:49:43;11.90;78.50
74101;DHT22;62462;52.530;21.682;2022-10-04T03:52:28;11.80;78.80
74101;DHT22;62462;52.530;21.682;2022-10-04T03:54:59;11.80;79.10
74101;DHT22;62462;52.530;21.682;2022-10-04T03:57:26;11.80;79.30
74101;DHT22;62462;52.530;21.682;2022-10-04T03:59:52;11.80;79.40
74101;DHT22;62462;52.530;21.682;2022-10-04T04:08:11;11.80;79.30
74101;DHT22;62462;52.530;21.682;2022-10-04T04:10:43;11.80;79.30
74101;DHT22;62462;52.530;21.682;2022-10-04T04:15:37;11.80;79.90
74101;DHT22;62462;52.530;21.682;2022-10-04T04:18:14;11.80;80.00
74101;DHT22;62462;52.530;21.682;2022-10-04T04:20:41;11.80;80.20
74101;DHT22;62462;52.530;21.682;2022-10-04T04:25:42;11.80;79.90
74101;DHT22;62462;52.530;21.682;2022-10-04T04:31:00;11.80;80.10
74101;DHT22;62462;52.530;21.682;2022-10-04T04:33:30;11.90;80.40
74101;DHT22;62462;52.530;21.682;2022-10-04T04:36:10;11.90;80.10
74101;DHT22;62462;52.530;21.682;2022-10-04T04:38:36;11.90;80.50
74101;DHT22;62462;52.530;21.682;2022-10-04T04:41:23;11.80;81.10
74101;DHT22;62462;52.530;21.682;2022-10-04T04:43:49;11.80;81.10
74101;DHT22;62462;52.530;21.682;2022-10-04T04:46:15;11.90;81.00
74101;DHT22;62462;52.530;21.682;2022-10-04T04:48:46;11.90;80.90
74101;DHT22;62462;52.530;21.682;2022-10-04T04:51:21;11.90;81.00
74101;DHT22;62462;52.530;21.682;2022-10-04T04:53:50;11.90;81.00
74101;DHT22;62462;52.530;21.682;2022-10-04T04:56:18;11.90;80.90
74101;DHT22;62462;52.530;21.682;2022-10-04T04:58:47;12.00;81.00
74101;DHT22;62462;52.530;21.682;2022-10-04T05:03:42;11.90;80.80
74101;DHT22;62462;52.530;21.682;2022-10-04T05:06:26;12.00;80.80
74101;DHT22;62462;52.530;21.682;2022-10-04T05:08:52;12.00;80.80
74101;DHT22;62462;52.530;21.682;2022-10-04T05:11:20;12.00;80.70
74101;DHT22;62462;52.530;21.682;2022-10-04T05:13:57;12.00;80.80
74101;DHT22;62462;52.530;21.682;2022-10-04T05:16:46;12.10;80.80
74101;DHT22;62462;52.530;21.682;2022-10-04T05:21:47;12.10;80.80
74101;DHT22;62462;52.530;21.682;2022-10-04T05:24:47;12.10;80.50
74101;DHT22;62462;52.530;21.682;2022-10-04T05:27:16;12.20;80.50
74101;DHT22;62462;52.530;21.682;2022-10-04T05:35:17;12.30;79.90
74101;DHT22;62462;52.530;21.682;2022-10-04T05:40:42;12.40;79.90
74101;DHT22;62462;52.530;21.682;2022-10-04T05:43:26;12.40;79.30
74101;DHT22;62462;52.530;21.682;2022-10-04T05:46:27;12.40;79.30
74101;DHT22;62462;52.530;21.682;2022-10-04T05:48:59;12.50;78.80
74101;DHT22;62462;52.530;21.682;2022-10-04T05:51:29;12.50;79.00
74101;DHT22;62462;52.530;21.682;2022-10-04T05:53:59;12.50;78.80
74101;DHT22;62462;52.530;21.682;2022-10-04T05:59:38;12.60;78.50
74101;DHT22;62462;52.530;21.682;2022-10-04T06:05:11;12.60;78.60
74101;DHT22;62462;52.530;21.682;2022-10-04T06:08:04;12.60;78.60
74101;DHT22;62462;52.530;21.682;2022-10-04T06:11:10;12.60;78.50
74101;DHT22;62462;52.530;21.682;2022-10-04T06:16:18;12.60;78.70
74101;DHT22;62462;52.530;21.682;2022-10-04T06:22:18;12.60;78.50
74101;DHT22;62462;52.530;21.682;2022-10-04T06:24:54;12.70;78.40
74101;DHT22;62462;52.530;21.682;2022-10-04T06:27:24;12.70;78.10
74101;DHT22;62462;52.530;21.682;2022-10-04T06:30:15;13.70;77.70
74101;DHT22;62462;52.530;21.682;2022-10-04T06:33:00;12.90;77.80
74101;DHT22;62462;52.530;21.682;2022-10-04T06:35:54;12.90;77.40
74101;DHT22;62462;52.530;21.682;2022-10-04T06:38:33;12.90;77.40
74101;DHT22;62462;52.530;21.682;2022-10-04T06:44:05;12.90;77.60
74101;DHT22;62462;52.530;21.682;2022-10-04T06:46:49;13.00;77.10
74101;DHT22;62462;52.530;21.682;2022-10-04T06:49:37;13.20;77.20
74101;DHT22;62462;52.530;21.682;2022-10-04T06:52:43;13.30;76.60
74101;DHT22;62462;52.530;21.682;2022-10-04T07:00:51;13.40;75.50
74101;DHT22;62462;52.530;21.682;2022-10-04T07:03:37;13.40;75.50
74101;DHT22;62462;52.530;21.682;2022-10-04T07:06:06;13.30;75.90
74101;DHT22;62462;52.530;21.682;2022-10-04T07:08:44;13.30;76.10
74101;DHT22;62462;52.530;21.682;2022-10-04T07:11:35;13.50;76.00
74101;DHT22;62462;52.530;21.682;2022-10-04T07:14:30;13.60;74.80
74101;DHT22;62462;52.530;21.682;2022-10-04T07:17:01;13.60;74.90
74101;DHT22;62462;52.530;21.682;2022-10-04T07:19:36;13.70;74.80
74101;DHT22;62462;52.530;21.682;2022-10-04T07:27:33;13.80;75.10
74101;DHT22;62462;52.530;21.682;2022-10-04T07:30:05;13.80;74.70
74101;DHT22;62462;52.530;21.682;2022-10-04T07:32:34;13.80;74.70
74101;DHT22;62462;52.530;21.682;2022-10-04T07:38:14;13.80;73.70
74101;DHT22;62462;52.530;21.682;2022-10-04T07:43:45;14.00;74.20
74101;DHT22;62462;52.530;21.682;2022-10-04T07:49:03;14.50;72.60
74101;DHT22;62462;52.530;21.682;2022-10-04T07:51:32;14.80;71.10
74101;DHT22;62462;52.530;21.682;2022-10-04T07:56:58;14.80;69.40
74101;DHT22;62462;52.530;21.682;2022-10-04T08:00:11;14.80;69.50
74101;DHT22;62462;52.530;21.682;2022-10-04T08:11:01;15.10;69.00
74101;DHT22;62462;52.530;21.682;2022-10-04T08:14:25;14.90;68.20
74101;DHT22;62462;52.530;21.682;2022-10-04T08:21:44;15.00;68.70
74101;DHT22;62462;52.530;21.682;2022-10-04T08:24:18;15.20;68.40
74101;DHT22;62462;52.530;21.682;2022-10-04T08:30:12;15.40;66.60
74101;DHT22;62462;52.530;21.682;2022-10-04T08:36:19;15.70;65.20
74101;DHT22;62462;52.530;21.682;2022-10-04T08:39:02;15.80;64.70
74101;DHT22;62462;52.530;21.682;2022-10-04T08:58:02;15.10;68.00
74101;DHT22;62462;52.530;21.682;2022-10-04T09:06:50;14.90;69.20
74101;DHT22;62462;52.530;21.682;2022-10-04T09:12:41;14.90;69.20
74101;DHT22;62462;52.530;21.682;2022-10-04T09:15:50;14.90;69.20
74101;DHT22;62462;52.530;21.682;2022-10-04T09:21:14;14.70;69.60
74101;DHT22;62462;52.530;21.682;2022-10-04T09:40:30;14.70;70.50
74101;DHT22;62462;52.530;21.682;2022-10-04T09:43:18;14.70;71.50
74101;DHT22;62462;52.530;21.682;2022-10-04T09:48:24;14.70;70.20
74101;DHT22;62462;52.530;21.682;2022-10-04T10:19:04;14.70;70.90
74101;DHT22;62462;52.530;21.682;2022-10-04T10:41:03;15.00;69.50
74101;DHT22;62462;52.530;21.682;2022-10-04T10:46:45;15.30;67.50
74101;DHT22;62462;52.530;21.682;2022-10-04T10:55:28;15.90;66.40
74101;DHT22;62462;52.530;21.682;2022-10-04T11:03:59;16.00;64.00
74101;DHT22;62462;52.530;21.682;2022-10-04T11:15:38;16.40;61.40
74101;DHT22;62462;52.530;21.682;2022-10-04T11:26:48;15.80;62.80
74101;DHT22;62462;52.530;21.682;2022-10-04T11:29:49;15.80;63.40
74101;DHT22;62462;52.530;21.682;2022-10-04T12:00:18;15.80;63.60
74101;DHT22;62462;52.530;21.682;2022-10-04T12:20:08;15.60;63.40
74101;DHT22;62462;52.530;21.682;2022-10-04T12:29:03;16.00;62.80
74101;DHT22;62462;52.530;21.682;2022-10-04T12:31:57;16.10;62.10
74101;DHT22;62462;52.530;21.682;2022-10-04T12:53:22;15.90;62.70
74101;DHT22;62462;52.530;21.682;2022-10-04T13:01:20;15.90;62.70
74101;DHT22;62462;52.530;21.682;2022-10-04T13:28:33;15.90;61.50
74101;DHT22;62462;52.530;21.682;2022-10-04T13:31:22;15.90;62.00
74101;DHT22;62462;52.530;21.682;2022-10-04T13:37:03;16.00;61.70
74101;DHT22;62462;52.530;21.682;2022-10-04T13:42:24;16.20;61.40
74101;DHT22;62462;52.530;21.682;2022-10-04T13:51:02;16.20;61.00
74101;DHT22;62462;52.530;21.682;2022-10-04T13:54:02;16.20;60.90
74101;DHT22;62462;52.530;21.682;2022-10-04T13:59:33;16.20;61.20
74101;DHT22;62462;52.530;21.682;2022-10-04T14:32:44;16.10;60.80
74101;DHT22;62462;52.530;21.682;2022-10-04T14:35:26;16.10;61.40
74101;DHT22;62462;52.530;21.682;2022-10-04T14:41:15;16.00;61.40
74101;DHT22;62462;52.530;21.682;2022-10-04T15:10:44;16.10;59.70
74101;DHT22;62462;52.530;21.682;2022-10-04T15:13:36;16.10;60.30
74101;DHT22;62462;52.530;21.682;2022-10-04T15:16:09;16.00;60.00
74101;DHT22;62462;52.530;21.682;2022-10-04T15:24:09;16.10;59.30
74101;DHT22;62462;52.530;21.682;2022-10-04T15:29:38;16.30;59.70
74101;DHT22;62462;52.530;21.682;2022-10-04T15:41:16;17.50;54.90
74101;DHT22;62462;52.530;21.682;2022-10-04T15:46:52;16.70;57.60
74101;DHT22;62462;52.530;21.682;2022-10-04T15:50:15;16.40;58.20
74101;DHT22;62462;52.530;21.682;2022-10-04T15:52:39;16.20;59.30
74101;DHT22;62462;52.530;21.682;2022-10-04T16:06:09;15.60;62.30
74101;DHT22;62462;52.530;21.682;2022-10-04T16:09:00;15.50;62.70
74101;DHT22;62462;52.530;21.682;2022-10-04T16:17:40;15.20;63.90
74101;DHT22;62462;52.530;21.682;2022-10-04T16:20:28;15.20;64.20
74101;DHT22;62462;52.530;21.682;2022-10-04T16:25:55;15.10;64.70
74101;DHT22;62462;52.530;21.682;2022-10-04T16:31:14;15.00;65.10
74101;DHT22;62462;52.530;21.682;2022-10-04T16:37:12;15.00;65.40
74101;DHT22;62462;52.530;21.682;2022-10-04T16:39:53;15.00;66.30
74101;DHT22;62462;52.530;21.682;2022-10-04T16:47:58;14.90;65.60
74101;DHT22;62462;52.530;21.682;2022-10-04T16:50:53;14.80;65.90
74101;DHT22;62462;52.530;21.682;2022-10-04T16:55:52;14.80;66.00
74101;DHT22;62462;52.530;21.682;2022-10-04T17:01:24;14.70;66.30
74101;DHT22;62462;52.530;21.682;2022-10-04T17:09:46;14.60;66.10
74101;DHT22;62462;52.530;21.682;2022-10-04T17:21:02;14.40;66.30
74101;DHT22;62462;52.530;21.682;2022-10-04T17:26:41;14.40;66.20
74101;DHT22;62462;52.530;21.682;2022-10-04T17:45:58;14.00;66.50
74101;DHT22;62462;52.530;21.682;2022-10-04T17:48:38;13.90;66.50
74101;DHT22;62462;52.530;21.682;2022-10-04T17:54:45;13.80;66.70
74101;DHT22;62462;52.530;21.682;2022-10-04T18:00:09;13.60;67.10
74101;DHT22;62462;52.530;21.682;2022-10-04T18:08:20;13.50;67.20
74101;DHT22;62462;52.530;21.682;2022-10-04T18:10:51;13.40;67.30
74101;DHT22;62462;52.530;21.682;2022-10-04T18:13:45;13.40;67.40
74101;DHT22;62462;52.530;21.682;2022-10-04T18:16:24;13.30;67.20
74101;DHT22;62462;52.530;21.682;2022-10-04T18:18:53;13.20;67.30
74101;DHT22;62462;52.530;21.682;2022-10-04T18:21:29;13.20;67.40
74101;DHT22;62462;52.530;21.682;2022-10-04T18:24:20;13.10;67.60
74101;DHT22;62462;52.530;21.682;2022-10-04T18:26:59;13.00;67.60
74101;DHT22;62462;52.530;21.682;2022-10-04T18:29:36;13.00;68.00
74101;DHT22;62462;52.530;21.682;2022-10-04T18:32:36;12.90;68.00
74101;DHT22;62462;52.530;21.682;2022-10-04T18:35:35;12.90;68.00
74101;DHT22;62462;52.530;21.682;2022-10-04T18:40:42;12.80;68.10
74101;DHT22;62462;52.530;21.682;2022-10-04T18:43:40;12.80;67.70
74101;DHT22;62462;52.530;21.682;2022-10-04T18:46:16;12.70;67.60
74101;DHT22;62462;52.530;21.682;2022-10-04T18:49:06;12.70;67.70
74101;DHT22;62462;52.530;21.682;2022-10-04T18:51:52;12.70;67.80
74101;DHT22;62462;52.530;21.682;2022-10-04T18:57:35;12.60;67.80
74101;DHT22;62462;52.530;21.682;2022-10-04T19:00:21;12.50;67.80
74101;DHT22;62462;52.530;21.682;2022-10-04T19:09:06;12.40;67.70
74101;DHT22;62462;52.530;21.682;2022-10-04T19:27:31;12.00;67.70
74101;DHT22;62462;52.530;21.682;2022-10-04T19:30:21;12.00;67.70
74101;DHT22;62462;52.530;21.682;2022-10-04T19:41:40;11.70;68.10
74101;DHT22;62462;52.530;21.682;2022-10-04T19:47:00;11.70;67.40
74101;DHT22;62462;52.530;21.682;2022-10-04T19:54:46;11.60;68.10
74101;DHT22;62462;52.530;21.682;2022-10-04T19:57:21;11.60;67.80
74101;DHT22;62462;52.530;21.682;2022-10-04T19:59:49;11.60;67.40
74101;DHT22;62462;52.530;21.682;2022-10-04T20:02:16;11.60;67.30
74101;DHT22;62462;52.530;21.682;2022-10-04T20:04:42;11.60;67.00
74101;DHT22;62462;52.530;21.682;2022-10-04T20:12:40;11.50;67.00
74101;DHT22;62462;52.530;21.682;2022-10-04T20:17:44;11.40;67.50
74101;DHT22;62462;52.530;21.682;2022-10-04T20:22:57;11.30;67.90
74101;DHT22;62462;52.530;21.682;2022-10-04T20:28:09;11.20;67.80
74101;DHT22;62462;52.530;21.682;2022-10-04T20:31:07;11.20;67.50
74101;DHT22;62462;52.530;21.682;2022-10-04T20:47:18;10.90;67.80
74101;DHT22;62462;52.530;21.682;2022-10-04T20:49:46;10.90;67.30
74101;DHT22;62462;52.530;21.682;2022-10-04T20:52:15;10.90;67.50
74101;DHT22;62462;52.530;21.682;2022-10-04T20:54:50;10.90;67.50
74101;DHT22;62462;52.530;21.682;2022-10-04T20:57:18;10.90;67.60
74101;DHT22;62462;52.530;21.682;2022-10-04T20:59:46;10.90;67.60
74101;DHT22;62462;52.530;21.682;2022-10-04T21:02:15;10.80;67.60
74101;DHT22;62462;52.530;21.682;2022-10-04T21:04:41;10.90;67.60
74101;DHT22;62462;52.530;21.682;2022-10-04T21:07:11;10.80;67.40
74101;DHT22;62462;52.530;21.682;2022-10-04T21:09:38;10.80;67.20
74101;DHT22;62462;52.530;21.682;2022-10-04T21:12:23;10.80;67.50
74101;DHT22;62462;52.530;21.682;2022-10-04T21:17:40;10.70;67.10
74101;DHT22;62462;52.530;21.682;2022-10-04T21:20:14;10.70;67.50
74101;DHT22;62462;52.530;21.682;2022-10-04T21:26:25;10.60;67.20
74101;DHT22;62462;52.530;21.682;2022-10-04T21:28:55;10.60;67.40
74101;DHT22;62462;52.530;21.682;2022-10-04T21:31:24;10.50;67.70
74101;DHT22;62462;52.530;21.682;2022-10-04T21:33:50;10.50;67.60
74101;DHT22;62462;52.530;21.682;2022-10-04T21:36:16;10.50;67.50
74101;DHT22;62462;52.530;21.682;2022-10-04T21:38:41;10.50;67.50
74101;DHT22;62462;52.530;21.682;2022-10-04T21:41:07;10.40;67.80
74101;DHT22;62462;52.530;21.682;2022-10-04T21:43:33;10.40;68.00
74101;DHT22;62462;52.530;21.682;2022-10-04T21:45:59;10.40;67.60
74101;DHT22;62462;52.530;21.682;2022-10-04T21:48:25;10.40;67.30
74101;DHT22;62462;52.530;21.682;2022-10-04T21:50:52;10.40;67.30
74101;DHT22;62462;52.530;21.682;2022-10-04T21:53:18;10.40;67.30
74101;DHT22;62462;52.530;21.682;2022-10-04T21:55:44;10.40;67.10
74101;DHT22;62462;52.530;21.682;2022-10-04T21:58:10;10.40;66.90
74101;DHT22;62462;52.530;21.682;2022-10-04T22:00:35;10.30;66.80
74101;DHT22;62462;52.530;21.682;2022-10-04T22:03:01;10.30;67.20
74101;DHT22;62462;52.530;21.682;2022-10-04T22:05:27;10.20;67.30
74101;DHT22;62462;52.530;21.682;2022-10-04T22:07:53;10.20;67.30
74101;DHT22;62462;52.530;21.682;2022-10-04T22:10:18;10.20;67.40
74101;DHT22;62462;52.530;21.682;2022-10-04T22:12:44;10.10;67.40
74101;DHT22;62462;52.530;21.682;2022-10-04T22:15:10;10.00;68.00
74101;DHT22;62462;52.530;21.682;2022-10-04T22:17:36;9.90;68.30
74101;DHT22;62462;52.530;21.682;2022-10-04T22:20:02;9.90;68.00
74101;DHT22;62462;52.530;21.682;2022-10-04T22:22:29;9.90;67.70
74101;DHT22;62462;52.530;21.682;2022-10-04T22:24:58;9.90;68.00
74101;DHT22;62462;52.530;21.682;2022-10-04T22:27:26;9.80;68.30
74101;DHT22;62462;52.530;21.682;2022-10-04T22:29:54;9.80;68.60
74101;DHT22;62462;52.530;21.682;2022-10-04T22:32:25;9.80;68.30
74101;DHT22;62462;52.530;21.682;2022-10-04T22:34:57;9.80;68.20
74101;DHT22;62462;52.530;21.682;2022-10-04T22:37:24;9.90;67.90
74101;DHT22;62462;52.530;21.682;2022-10-04T22:39:51;9.90;67.70
74101;DHT22;62462;52.530;21.682;2022-10-04T22:42:17;9.80;67.50
74101;DHT22;62462;52.530;21.682;2022-10-04T22:44:43;9.90;67.50
74101;DHT22;62462;52.530;21.682;2022-10-04T22:47:14;9.80;67.50
74101;DHT22;62462;52.530;21.682;2022-10-04T22:49:45;9.80;67.60
74101;DHT22;62462;52.530;21.682;2022-10-04T22:52:20;9.80;67.80
74101;DHT22;62462;52.530;21.682;2022-10-04T22:54:48;9.70;68.00
74101;DHT22;62462;52.530;21.682;2022-10-04T22:57:16;9.70;67.80
74101;DHT22;62462;52.530;21.682;2022-10-04T22:59:44;9.70;67.90
74101;DHT22;62462;52.530;21.682;2022-10-04T23:02:26;9.70;68.00
74101;DHT22;62462;52.530;21.682;2022-10-04T23:04:55;9.70;68.20
74101;DHT22;62462;52.530;21.682;2022-10-04T23:07:22;9.70;68.50
74101;DHT22;62462;52.530;21.682;2022-10-04T23:09:48;9.70;68.50
74101;DHT22;62462;52.530;21.682;2022-10-04T23:12:14;9.70;68.70
74101;DHT22;62462;52.530;21.682;2022-10-04T23:14:40;9.70;69.10
74101;DHT22;62462;52.530;21.682;2022-10-04T23:20:00;9.80;69.40
74101;DHT22;62462;52.530;21.682;2022-10-04T23:22:29;9.90;69.50
74101;DHT22;62462;52.530;21.682;2022-10-04T23:24:55;9.90;69.80
74101;DHT22;62462;52.530;21.682;2022-10-04T23:27:22;9.90;70.30
74101;DHT22;62462;52.530;21.682;2022-10-04T23:29:51;10.00;70.40
74101;DHT22;62462;52.530;21.682;2022-10-04T23:32:19;10.00;70.00
74101;DHT22;62462;52.530;21.682;2022-10-04T23:34:47;10.10;70.10
74101;DHT22;62462;52.530;21.682;2022-10-04T23:37:19;10.10;70.10
74101;DHT22;62462;52.530;21.682;2022-10-04T23:39:46;10.20;70.40
74101;DHT22;62462;52.530;21.682;2022-10-04T23:42:17;10.20;70.80
74101;DHT22;62462;52.530;21.682;2022-10-04T23:44:44;10.30;71.30
74101;DHT22;62462;52.530;21.682;2022-10-04T23:47:14;10.30;72.20
74101;DHT22;62462;52.530;21.682;2022-10-04T23:49:40;10.30;72.40
74101;DHT22;62462;52.530;21.682;2022-10-04T23:52:18;10.40;72.30
74101;DHT22;62462;52.530;21.682;2022-10-04T23:54:45;10.50;72.20
74101;DHT22;62462;52.530;21.682;2022-10-04T23:57:21;10.50;72.00
74101;DHT22;62462;52.530;21.682;2022-10-04T23:59:48;10.60;71.80
